Time;durP1;ratioP1;P1;durP2;ratioP2;P2;SDS_P1;SDS_P2;PMS_P1;PMS_P2;Temp;Humidity;BMP_temperature;BMP_pressure;BME280_temperature;BME280_humidity;BME280_pressure;Samples;Min_cycle;Max_cycle;Signal;HPM_P1;HPM_P2
2023/03/24 00:00:10;;;;;;;1.80;1.70;;;16.50;79.90;;;;;;922817;150;27475;-80
2023/03/24 00:02:40;;;;;;;1.80;1.60;;;16.40;80.30;;;;;;924200;151;27398;-80
2023/03/24 00:05:04;;;;;;;1.37;1.27;;;16.30;80.50;;;;;;923213;151;27335;-80
2023/03/24 00:07:32;;;;;;;1.65;1.55;;;16.30;80.80;;;;;;922395;151;27308;-80
2023/03/24 00:09:57;;;;;;;3.40;2.20;;;16.20;81.20;;;;;;922922;151;27398;-80
2023/03/24 00:12:24;;;;;;;6.12;2.33;;;16.20;81.70;;;;;;920960;151;27399;-80
2023/03/24 00:14:53;;;;;;;3.77;1.87;;;16.10;82.00;;;;;;924285;151;27501;-80
2023/03/24 00:17:17;;;;;;;2.17;1.70;;;16.00;82.50;;;;;;924644;151;27449;-80
2023/03/24 00:19:46;;;;;;;1.50;1.40;;;16.00;82.90;;;;;;924692;151;27562;-80
2023/03/24 00:22:13;;;;;;;1.57;1.47;;;15.90;83.40;;;;;;923067;151;27390;-80
2023/03/24 00:24:36;;;;;;;1.77;1.67;;;15.90;83.80;;;;;;925111;151;27556;-80
2023/03/24 00:27:03;;;;;;;2.00;1.90;;;15.90;84.40;;;;;;924898;151;27367;-80
2023/03/24 00:29:29;;;;;;;2.55;1.90;;;15.80;84.90;;;;;;922323;151;27454;-80
2023/03/24 00:31:56;;;;;;;1.70;1.60;;;15.80;85.50;;;;;;924569;151;27339;-80
2023/03/24 00:34:23;;;;;;;1.90;1.67;;;15.80;85.90;;;;;;921981;151;27501;-80
2023/03/24 00:36:49;;;;;;;3.30;1.75;;;15.70;86.60;;;;;;925054;151;27501;-80
2023/03/24 00:39:18;;;;;;;2.52;2.05;;;15.70;86.70;;;;;;924045;151;27490;-80
2023/03/24 00:41:44;;;;;;;2.05;1.95;;;15.70;87.20;;;;;;923421;151;27386;-80
2023/03/24 00:44:16;;;;;;;2.25;2.05;;;15.60;87.50;;;;;;923655;151;27840;-80
2023/03/24 00:46:37;;;;;;;2.40;2.20;;;15.60;87.90;;;;;;923748;151;27501;-80
2023/03/24 00:49:05;;;;;;;3.13;1.93;;;15.60;88.40;;;;;;923045;151;27385;-80
2023/03/24 00:51:34;;;;;;;4.15;2.35;;;15.50;88.80;;;;;;923595;151;27493;-80
2023/03/24 00:54:01;;;;;;;3.17;2.02;;;15.50;89.30;;;;;;922541;151;27438;-80
2023/03/24 00:56:28;;;;;;;3.08;2.55;;;15.50;89.50;;;;;;924336;151;27390;-80
2023/03/24 00:58:56;;;;;;;2.43;2.23;;;15.50;90.00;;;;;;921720;151;27359;-80
2023/03/24 01:01:21;;;;;;;2.87;2.60;;;15.40;90.00;;;;;;924826;151;27284;-80
2023/03/24 01:03:49;;;;;;;2.77;2.50;;;15.40;90.30;;;;;;924295;151;27366;-80
2023/03/24 01:06:14;;;;;;;2.20;2.00;;;15.40;90.40;;;;;;922967;151;27868;-80
2023/03/24 01:08:40;;;;;;;3.10;2.23;;;15.30;90.50;;;;;;923537;151;27447;-80
2023/03/24 01:11:07;;;;;;;2.73;2.50;;;15.30;90.60;;;;;;923922;151;27333;-80
2023/03/24 01:13:33;;;;;;;2.70;2.47;;;15.30;90.80;;;;;;923573;151;27305;-80
2023/03/24 01:16:00;;;;;;;2.50;2.30;;;15.30;90.90;;;;;;922177;151;27354;-80
2023/03/24 01:18:27;;;;;;;2.93;2.50;;;15.20;91.10;;;;;;923191;151;27403;-80
2023/03/24 01:20:53;;;;;;;4.10;2.22;;;15.20;91.30;;;;;;922508;151;27997;-80
2023/03/24 01:23:20;;;;;;;2.70;2.50;;;15.20;91.50;;;;;;924046;151;27304;-80
2023/03/24 01:25:47;;;;;;;2.52;2.33;;;15.10;91.60;;;;;;921992;151;27382;-80
2023/03/24 01:28:16;;;;;;;3.00;2.70;;;15.10;91.80;;;;;;925103;151;27315;-80
2023/03/24 01:30:42;;;;;;;3.07;2.70;;;15.10;91.80;;;;;;922645;151;27408;-80
2023/03/24 01:33:09;;;;;;;2.50;2.30;;;15.10;91.70;;;;;;923032;151;27392;-80
2023/03/24 01:35:36;;;;;;;2.97;2.67;;;15.00;91.90;;;;;;923103;151;27325;-80
2023/03/24 01:38:06;;;;;;;2.90;2.70;;;15.00;92.10;;;;;;923134;151;27294;-80
2023/03/24 01:40:32;;;;;;;3.57;3.07;;;15.00;92.20;;;;;;923037;151;27394;-80
2023/03/24 01:42:58;;;;;;;3.70;3.40;;;15.00;92.40;;;;;;923566;151;27414;-80
2023/03/24 01:46:02;;;;;;;4.67;2.87;;;15.00;92.50;;;;;;923125;151;27378;-80
2023/03/24 01:48:31;;;;;;;3.60;3.30;;;15.00;92.70;;;;;;923653;151;27386;-81
2023/03/24 01:50:58;;;;;;;3.22;2.92;;;14.90;92.70;;;;;;924179;151;27407;-81
2023/03/24 01:53:24;;;;;;;2.90;2.60;;;14.90;92.90;;;;;;923867;151;27779;-80
2023/03/24 01:55:51;;;;;;;3.10;2.80;;;14.90;93.10;;;;;;922493;151;27489;-80
2023/03/24 01:58:18;;;;;;;3.40;3.10;;;14.80;93.30;;;;;;923387;151;27390;-80
2023/03/24 02:00:44;;;;;;;3.37;2.95;;;14.80;93.50;;;;;;922307;151;27305;-80
2023/03/24 02:03:14;;;;;;;3.23;2.93;;;14.80;93.70;;;;;;924281;151;27417;-80
2023/03/24 02:05:40;;;;;;;3.10;2.80;;;14.80;93.80;;;;;;921999;151;27489;-80
2023/03/24 02:08:14;;;;;;;2.90;2.70;;;14.80;94.00;;;;;;923951;151;27480;-81
2023/03/24 02:10:39;;;;;;;3.02;2.70;;;14.80;94.00;;;;;;924504;151;27343;-80
2023/03/24 02:13:06;;;;;;;2.80;2.58;;;14.80;94.10;;;;;;923075;151;27455;-80
2023/03/24 02:15:32;;;;;;;3.20;2.65;;;14.80;94.40;;;;;;926311;151;27680;-80
2023/03/24 02:18:08;;;;;;;3.27;2.77;;;14.80;94.50;;;;;;922712;151;27348;-80
2023/03/24 02:20:59;;;;;;;4.10;2.90;;;14.80;94.60;;;;;;912547;153;27507;-80
2023/03/24 02:23:44;;;;;;;3.00;2.77;;;14.70;94.60;;;;;;928952;150;27422;-80
2023/03/24 02:26:19;;;;;;;3.33;2.80;;;14.70;94.40;;;;;;946191;147;27312;-81
2023/03/24 02:29:02;;;;;;;4.53;2.92;;;14.70;94.60;;;;;;946628;147;27428;-80
2023/03/24 02:31:39;;;;;;;3.62;2.77;;;14.70;95.20;;;;;;945851;147;27465;-80
2023/03/24 02:34:18;;;;;;;3.37;3.00;;;14.70;95.00;;;;;;948096;147;27452;-80
2023/03/24 02:37:06;;;;;;;3.25;2.98;;;14.70;95.20;;;;;;947414;147;27331;-80
2023/03/24 02:39:44;;;;;;;5.20;3.20;;;14.60;95.30;;;;;;947274;147;27354;-81
2023/03/24 02:42:30;;;;;;;3.00;2.80;;;14.60;95.30;;;;;;948734;147;27379;-80
2023/03/24 02:45:05;;;;;;;3.08;2.77;;;14.60;95.30;;;;;;945165;147;27489;-80
2023/03/24 02:48:02;;;;;;;2.90;2.67;;;14.60;95.40;;;;;;913900;153;27323;-81
2023/03/24 02:50:29;;;;;;;3.57;2.53;;;14.50;95.80;;;;;;948420;147;27430;-80
2023/03/24 02:53:07;;;;;;;2.93;2.73;;;14.50;95.70;;;;;;946844;147;27304;-80
2023/03/24 02:55:36;;;;;;;3.70;3.03;;;14.50;95.80;;;;;;947451;147;27467;-81
2023/03/24 02:58:03;;;;;;;2.90;2.63;;;14.40;96.10;;;;;;944649;147;27459;-80
2023/03/24 03:00:47;;;;;;;3.63;2.63;;;14.40;96.10;;;;;;947198;147;27371;-80
2023/03/24 03:03:14;;;;;;;2.70;2.50;;;14.40;95.80;;;;;;937824;147;27371;-80
2023/03/24 03:06:13;;;;;;;2.83;2.63;;;14.40;96.20;;;;;;946073;147;27360;-81
2023/03/24 03:08:40;;;;;;;3.00;2.70;;;14.40;96.40;;;;;;948351;147;27339;-81
2023/03/24 03:11:07;;;;;;;2.80;2.60;;;14.30;96.20;;;;;;946821;147;27361;-80
2023/03/24 03:13:36;;;;;;;3.20;2.70;;;14.30;96.50;;;;;;945502;147;27408;-80
2023/03/24 03:16:03;;;;;;;2.67;2.47;;;14.30;96.80;;;;;;929703;150;27507;-80
2023/03/24 03:18:32;;;;;;;3.00;2.70;;;14.30;97.00;;;;;;948968;147;27348;-80
2023/03/24 03:20:59;;;;;;;3.83;2.90;;;14.30;97.10;;;;;;939613;147;27663;-79
2023/03/24 03:23:28;;;;;;;3.03;2.83;;;14.30;97.30;;;;;;941182;148;27352;-80
2023/03/24 03:25:55;;;;;;;3.00;2.70;;;14.30;97.40;;;;;;943670;148;27750;-80
2023/03/24 03:28:21;;;;;;;2.87;2.67;;;14.30;97.50;;;;;;943659;148;27395;-74
2023/03/24 03:30:51;;;;;;;3.10;2.80;;;14.30;97.40;;;;;;942288;148;27383;-74
2023/03/24 03:33:23;;;;;;;2.80;2.57;;;14.30;97.70;;;;;;942828;148;27337;-74
2023/03/24 03:35:47;;;;;;;2.85;2.52;;;14.30;97.70;;;;;;941357;148;27415;-74
2023/03/24 03:38:17;;;;;;;4.20;3.10;;;14.30;97.80;;;;;;941341;148;27371;-74
2023/03/24 03:40:45;;;;;;;2.73;2.50;;;14.30;97.80;;;;;;937460;148;27392;-74
2023/03/24 03:43:12;;;;;;;3.27;2.70;;;14.30;97.80;;;;;;942204;148;27337;-74
2023/03/24 03:45:39;;;;;;;4.67;2.53;;;14.30;97.80;;;;;;941911;148;27356;-74
2023/03/24 03:48:05;;;;;;;3.10;2.80;;;14.30;97.80;;;;;;941929;148;27405;-74
2023/03/24 03:50:32;;;;;;;2.77;2.57;;;14.30;97.80;;;;;;941657;148;27368;-74
2023/03/24 03:52:59;;;;;;;3.30;2.20;;;14.30;97.70;;;;;;944311;148;27315;-74
2023/03/24 03:55:25;;;;;;;3.00;2.80;;;14.30;97.80;;;;;;943420;148;27318;-74
2023/03/24 03:57:52;;;;;;;3.57;2.50;;;14.40;97.90;;;;;;941238;148;27383;-74
2023/03/24 04:00:19;;;;;;;3.27;2.90;;;14.40;97.90;;;;;;941214;148;27323;-74
2023/03/24 04:02:47;;;;;;;3.10;2.57;;;14.40;98.00;;;;;;942039;148;27332;-74
2023/03/24 04:05:26;;;;;;;3.00;2.70;;;14.40;97.90;;;;;;941496;148;27332;-74
2023/03/24 04:08:05;;;;;;;2.58;2.17;;;14.50;97.90;;;;;;942474;148;27405;-76
2023/03/24 04:10:46;;;;;;;2.67;2.23;;;14.50;97.40;;;;;;942527;148;27436;-74
2023/03/24 04:13:25;;;;;;;4.03;2.40;;;14.50;97.60;;;;;;942986;148;27328;-74
2023/03/24 04:15:55;;;;;;;2.83;2.52;;;14.50;97.60;;;;;;941795;148;27402;-74
2023/03/24 04:18:43;;;;;;;3.40;2.40;;;14.50;97.60;;;;;;943033;148;27289;-74
2023/03/24 04:21:18;;;;;;;2.67;2.47;;;14.60;97.80;;;;;;941387;148;27403;-75
2023/03/24 04:23:56;;;;;;;2.75;2.55;;;14.60;97.80;;;;;;940970;148;27415;-75
2023/03/24 04:26:47;;;;;;;3.25;2.65;;;14.70;97.90;;;;;;942177;148;27310;-75
2023/03/24 04:29:24;;;;;;;2.73;2.53;;;14.70;97.90;;;;;;942077;148;27447;-75
2023/03/24 04:32:01;;;;;;;3.57;3.00;;;14.80;97.60;;;;;;941707;148;27473;-74
2023/03/24 04:34:28;;;;;;;2.95;2.75;;;14.90;97.80;;;;;;941929;148;28020;-74
2023/03/24 04:36:54;;;;;;;3.17;2.90;;;15.00;97.80;;;;;;942004;148;27341;-74
2023/03/24 04:39:27;;;;;;;2.92;2.30;;;15.00;98.00;;;;;;942715;148;27350;-74
2023/03/24 04:41:48;;;;;;;2.92;2.42;;;15.10;97.80;;;;;;940088;148;27338;-74
2023/03/24 04:44:16;;;;;;;5.03;3.27;;;15.20;97.70;;;;;;943004;148;27376;-73
2023/03/24 04:46:41;;;;;;;3.52;2.37;;;15.30;97.70;;;;;;942350;148;27493;-74
2023/03/24 04:49:07;;;;;;;3.35;3.05;;;15.40;97.60;;;;;;941114;148;27357;-74
2023/03/24 04:51:34;;;;;;;4.37;2.92;;;15.50;97.60;;;;;;942976;148;27360;-74
2023/03/24 04:54:00;;;;;;;3.55;2.90;;;15.60;97.40;;;;;;940950;148;27407;-74
2023/03/24 04:56:29;;;;;;;3.17;2.87;;;15.70;97.20;;;;;;941408;148;27385;-74
2023/03/24 04:58:57;;;;;;;4.35;2.75;;;15.70;97.00;;;;;;943512;148;27423;-74
2023/03/24 05:01:24;;;;;;;3.02;2.83;;;15.80;96.90;;;;;;940453;148;27349;-75
2023/03/24 05:03:49;;;;;;;3.08;2.87;;;15.80;96.90;;;;;;943627;148;27457;-74
2023/03/24 05:06:16;;;;;;;3.25;2.80;;;15.80;97.00;;;;;;942705;148;27396;-74
2023/03/24 05:08:42;;;;;;;4.30;2.65;;;15.80;97.20;;;;;;942469;148;27327;-74
2023/03/24 05:11:09;;;;;;;2.83;2.60;;;15.70;97.60;;;;;;942432;148;27377;-74
2023/03/24 05:13:35;;;;;;;3.22;2.95;;;15.70;97.70;;;;;;943551;148;27336;-74
2023/03/24 05:16:02;;;;;;;3.27;2.98;;;15.70;97.80;;;;;;941075;148;27362;-75
2023/03/24 05:18:29;;;;;;;2.80;2.43;;;15.70;98.10;;;;;;941734;148;27360;-75
2023/03/24 05:20:55;;;;;;;2.80;2.60;;;15.60;98.20;;;;;;943743;148;27414;-74
2023/03/24 05:23:22;;;;;;;3.55;2.87;;;15.60;98.20;;;;;;940995;148;27458;-74
2023/03/24 05:25:49;;;;;;;3.50;2.90;;;15.60;98.30;;;;;;925237;151;27350;-74
2023/03/24 05:28:15;;;;;;;3.58;2.62;;;15.50;98.60;;;;;;904754;154;27425;-74
2023/03/24 05:30:42;;;;;;;3.75;2.85;;;15.50;98.60;;;;;;917981;152;27389;-74
2023/03/24 05:33:08;;;;;;;4.40;3.00;;;15.50;99.00;;;;;;920606;152;27466;-74
2023/03/24 05:35:35;;;;;;;3.10;2.85;;;15.40;99.70;;;;;;920100;152;27410;-74
2023/03/24 05:38:01;;;;;;;3.33;2.80;;;15.40;99.40;;;;;;919875;152;27396;-74
2023/03/24 05:40:28;;;;;;;3.33;2.80;;;15.40;99.60;;;;;;905388;154;27502;-75
2023/03/24 05:42:55;;;;;;;2.77;2.60;;;15.40;99.90;;;;;;921265;152;27437;-75
2023/03/24 05:45:21;;;;;;;2.45;2.27;;;15.40;99.80;;;;;;902571;154;27478;-75
2023/03/24 05:47:48;;;;;;;2.83;2.62;;;15.40;99.90;;;;;;921607;152;27426;-74
2023/03/24 05:50:14;;;;;;;2.65;2.45;;;15.40;99.90;;;;;;904645;155;27503;-74
2023/03/24 05:52:41;;;;;;;2.58;2.37;;;15.40;99.90;;;;;;904285;155;27499;-74
2023/03/24 05:55:08;;;;;;;2.35;2.15;;;15.40;99.90;;;;;;918458;152;27314;-74
2023/03/24 05:57:35;;;;;;;2.60;2.40;;;15.40;99.90;;;;;;918858;152;27358;-74
2023/03/24 06:00:01;;;;;;;2.30;2.10;;;15.40;99.90;;;;;;903338;154;27402;-74
2023/03/24 06:02:27;;;;;;;3.20;2.37;;;15.40;99.90;;;;;;923657;151;27406;-74
2023/03/24 06:04:56;;;;;;;2.40;2.20;;;15.40;99.90;;;;;;939871;148;27379;-74
2023/03/24 06:07:25;;;;;;;2.40;2.20;;;15.40;99.90;;;;;;925548;151;27496;-74
2023/03/24 06:09:49;;;;;;;1.90;1.80;;;15.40;99.90;;;;;;922906;151;27407;-74
2023/03/24 06:12:14;;;;;;;2.00;1.90;;;15.40;99.90;;;;;;939360;148;27502;-74
2023/03/24 06:14:40;;;;;;;2.20;2.00;;;15.40;99.90;;;;;;925271;151;27402;-74
2023/03/24 06:17:07;;;;;;;1.70;1.60;;;15.40;99.90;;;;;;927932;151;27342;-74
2023/03/24 06:19:37;;;;;;;2.40;2.20;;;15.40;99.90;;;;;;904861;155;27410;-74
2023/03/24 06:22:01;;;;;;;2.17;2.00;;;15.50;99.90;;;;;;901903;155;27336;-74
2023/03/24 06:24:27;;;;;;;1.87;1.77;;;15.50;99.90;;;;;;923575;150;27437;-74
2023/03/24 06:27:00;;;;;;;1.80;1.70;;;15.50;99.90;;;;;;914392;153;27380;-74
2023/03/24 06:29:20;;;;;;;1.90;1.80;;;15.50;99.90;;;;;;911771;153;27418;-74
2023/03/24 06:31:46;;;;;;;2.75;2.00;;;15.50;99.90;;;;;;929651;150;27494;-74
2023/03/24 06:34:13;;;;;;;2.30;2.05;;;15.60;99.90;;;;;;928863;150;27500;-74
2023/03/24 06:36:39;;;;;;;2.42;2.00;;;15.60;99.90;;;;;;913933;153;27359;-74
2023/03/24 06:39:06;;;;;;;1.98;1.80;;;15.60;99.90;;;;;;913616;153;27364;-74
2023/03/24 06:41:33;;;;;;;1.70;1.60;;;15.70;99.90;;;;;;928810;150;27397;-74
2023/03/24 06:44:00;;;;;;;1.92;1.82;;;15.70;99.90;;;;;;928831;150;27411;-74
2023/03/24 06:46:26;;;;;;;2.02;1.92;;;15.80;99.90;;;;;;929536;150;27457;-74
2023/03/24 06:48:52;;;;;;;2.00;1.90;;;15.80;99.90;;;;;;931118;150;27319;-74
2023/03/24 06:51:19;;;;;;;1.90;1.80;;;15.90;99.90;;;;;;913855;153;27373;-75
2023/03/24 06:53:46;;;;;;;1.80;1.70;;;15.90;99.90;;;;;;912325;153;27548;-74
2023/03/24 06:56:17;;;;;;;2.10;1.75;;;16.00;99.90;;;;;;913744;153;27489;-74
2023/03/24 06:58:42;;;;;;;2.72;1.77;;;16.10;99.90;;;;;;911672;152;27856;-74
2023/03/24 07:01:08;;;;;;;1.70;1.60;;;16.10;99.90;;;;;;916730;153;27372;-74
2023/03/24 07:03:35;;;;;;;2.00;1.80;;;16.10;99.80;;;;;;915657;153;27379;-74
2023/03/24 07:06:01;;;;;;;1.85;1.75;;;16.20;99.70;;;;;;931029;150;27377;-74
2023/03/24 07:08:28;;;;;;;2.47;1.80;;;16.20;99.50;;;;;;912803;153;27393;-75
2023/03/24 07:10:54;;;;;;;1.95;1.80;;;16.20;99.60;;;;;;929937;150;27454;-75
2023/03/24 07:13:21;;;;;;;1.47;1.37;;;16.30;99.50;;;;;;929318;150;27388;-75
2023/03/24 07:15:48;;;;;;;1.65;1.55;;;16.30;99.30;;;;;;913545;153;27429;-75
2023/03/24 07:18:14;;;;;;;1.77;1.50;;;16.40;99.20;;;;;;911687;153;27521;-75
2023/03/24 07:20:41;;;;;;;1.80;1.70;;;16.40;98.90;;;;;;913597;153;27481;-75
2023/03/24 07:23:08;;;;;;;1.47;1.40;;;16.40;98.80;;;;;;928232;150;27342;-75
2023/03/24 07:25:34;;;;;;;2.10;1.90;;;16.50;98.70;;;;;;905657;153;27449;-75
2023/03/24 07:28:01;;;;;;;1.70;1.60;;;16.50;98.80;;;;;;911548;153;27492;-75
2023/03/24 07:30:27;;;;;;;1.40;1.30;;;16.50;98.80;;;;;;903900;153;27417;-75
2023/03/24 07:32:54;;;;;;;1.70;1.50;;;16.60;99.00;;;;;;924801;151;27329;-75
2023/03/24 07:35:21;;;;;;;1.55;1.45;;;16.70;99.10;;;;;;939523;148;27292;-75
2023/03/24 07:37:48;;;;;;;1.70;1.60;;;16.70;99.00;;;;;;926778;150;27416;-75
2023/03/24 07:40:14;;;;;;;1.67;1.57;;;16.80;98.80;;;;;;918791;150;27381;-75
2023/03/24 07:42:43;;;;;;;3.40;1.67;;;16.90;98.50;;;;;;919894;152;27481;-75
2023/03/24 07:45:07;;;;;;;1.65;1.55;;;17.00;98.10;;;;;;918000;150;27373;-75
2023/03/24 07:47:33;;;;;;;1.65;1.55;;;17.10;97.80;;;;;;926315;150;27371;-76
2023/03/24 07:50:02;;;;;;;1.80;1.70;;;17.10;97.40;;;;;;923644;151;27324;-75
2023/03/24 07:52:29;;;;;;;1.57;1.47;;;17.10;97.10;;;;;;939095;148;27500;-75
2023/03/24 07:54:53;;;;;;;1.82;1.72;;;17.10;96.80;;;;;;904429;154;27461;-75
2023/03/24 07:57:20;;;;;;;2.20;2.00;;;17.10;96.70;;;;;;901917;154;27425;-76
2023/03/24 07:59:46;;;;;;;1.62;1.52;;;17.10;96.40;;;;;;940339;148;27365;-75
2023/03/24 08:02:16;;;;;;;2.30;2.10;;;17.10;96.50;;;;;;938402;148;27443;-75
2023/03/24 08:04:43;;;;;;;1.82;1.72;;;17.00;96.30;;;;;;919735;151;27385;-75
2023/03/24 08:07:11;;;;;;;2.17;1.98;;;17.00;96.30;;;;;;901104;153;27450;-75
2023/03/24 08:09:36;;;;;;;1.72;1.62;;;17.00;96.30;;;;;;920689;152;27496;-76
2023/03/24 08:12:02;;;;;;;2.33;2.12;;;16.90;96.50;;;;;;919918;152;27321;-75
2023/03/24 08:14:29;;;;;;;2.35;1.90;;;16.90;96.60;;;;;;919269;152;27338;-75
2023/03/24 08:16:55;;;;;;;2.25;2.08;;;16.90;96.70;;;;;;918528;152;27671;-75
2023/03/24 08:19:22;;;;;;;2.35;1.90;;;16.90;96.80;;;;;;905577;154;27401;-75
2023/03/24 08:21:49;;;;;;;1.87;1.77;;;16.80;96.90;;;;;;902605;153;27395;-75
2023/03/24 08:24:16;;;;;;;2.25;2.05;;;16.80;97.20;;;;;;911057;154;27291;-75
2023/03/24 08:26:42;;;;;;;2.08;1.98;;;16.80;97.50;;;;;;909026;153;27555;-75
2023/03/24 08:29:08;;;;;;;2.85;2.02;;;16.90;97.80;;;;;;918839;153;27401;-75
2023/03/24 08:31:35;;;;;;;2.80;1.95;;;17.00;98.20;;;;;;912173;153;27372;-75
2023/03/24 08:34:02;;;;;;;2.65;2.10;;;17.10;98.70;;;;;;925733;153;27312;-75
2023/03/24 08:36:28;;;;;;;2.02;1.90;;;17.20;98.60;;;;;;926059;153;27339;-75
2023/03/24 08:38:55;;;;;;;2.30;1.98;;;17.30;98.30;;;;;;927995;150;27495;-75
2023/03/24 08:41:33;;;;;;;2.12;1.92;;;17.50;97.90;;;;;;927569;150;27393;-75
2023/03/24 08:43:48;;;;;;;1.87;1.72;;;17.60;97.50;;;;;;924737;153;27343;-75
2023/03/24 08:46:15;;;;;;;2.22;2.00;;;17.70;97.00;;;;;;926434;151;27700;-76
2023/03/24 08:48:42;;;;;;;1.80;1.70;;;17.90;96.40;;;;;;926311;151;27375;-75
2023/03/24 08:51:10;;;;;;;1.90;1.77;;;17.90;95.90;;;;;;927339;150;27391;-75
2023/03/24 08:53:37;;;;;;;3.02;2.50;;;17.90;95.30;;;;;;917223;153;27400;-75
2023/03/24 08:56:04;;;;;;;2.00;1.90;;;18.00;95.00;;;;;;911667;153;27345;-75
2023/03/24 08:58:30;;;;;;;1.87;1.77;;;18.00;95.00;;;;;;925799;151;27328;-75
2023/03/24 09:00:57;;;;;;;2.27;2.08;;;18.10;95.10;;;;;;925900;151;27479;-76
2023/03/24 09:03:23;;;;;;;2.00;1.90;;;18.10;94.70;;;;;;911064;153;27502;-75
2023/03/24 09:05:50;;;;;;;2.10;1.90;;;18.20;94.70;;;;;;910438;153;27440;-75
2023/03/24 09:08:17;;;;;;;3.65;2.92;;;18.20;94.50;;;;;;910715;153;27360;-75
2023/03/24 09:10:45;;;;;;;1.90;1.80;;;18.20;94.00;;;;;;925848;151;27497;-75
2023/03/24 09:13:10;;;;;;;2.05;1.95;;;18.30;93.70;;;;;;923952;150;27402;-75
2023/03/24 09:15:36;;;;;;;1.82;1.70;;;18.30;93.30;;;;;;909809;153;27401;-75
2023/03/24 09:18:03;;;;;;;2.33;2.12;;;18.30;93.70;;;;;;918263;153;27347;-75
2023/03/24 09:20:30;;;;;;;2.98;2.40;;;18.30;94.10;;;;;;917649;153;27399;-74
2023/03/24 09:22:56;;;;;;;2.40;2.10;;;18.30;94.20;;;;;;911518;153;27516;-75
2023/03/24 09:25:23;;;;;;;2.05;1.95;;;18.30;94.30;;;;;;924635;151;27484;-74
2023/03/24 09:27:50;;;;;;;2.17;1.98;;;18.30;94.00;;;;;;911091;153;27450;-74
2023/03/24 09:30:16;;;;;;;2.35;1.90;;;18.30;93.90;;;;;;925292;150;27487;-74
2023/03/24 09:32:42;;;;;;;1.90;1.80;;;18.30;93.60;;;;;;926577;151;27331;-74
2023/03/24 09:35:09;;;;;;;2.00;1.80;;;18.30;93.60;;;;;;927283;151;27489;-74
2023/03/24 09:37:36;;;;;;;2.52;2.10;;;18.30;93.70;;;;;;926399;151;27398;-74
2023/03/24 09:40:03;;;;;;;2.20;2.00;;;18.30;93.80;;;;;;926257;151;27421;-75
2023/03/24 09:42:29;;;;;;;2.33;1.92;;;18.20;93.60;;;;;;927292;151;27357;-75
2023/03/24 09:44:58;;;;;;;2.12;1.92;;;18.10;93.60;;;;;;927396;151;27441;-75
2023/03/24 09:47:31;;;;;;;1.77;1.67;;;18.00;93.60;;;;;;924318;151;27395;-75
2023/03/24 09:49:57;;;;;;;2.10;1.90;;;18.00;93.60;;;;;;924565;151;27449;-75
2023/03/24 09:52:24;;;;;;;1.57;1.47;;;17.90;93.70;;;;;;925014;151;27375;-75
2023/03/24 09:54:51;;;;;;;1.37;1.27;;;17.70;93.70;;;;;;924058;151;27457;-74
2023/03/24 09:57:17;;;;;;;1.00;1.00;;;17.60;93.40;;;;;;926573;151;27370;-75
2023/03/24 09:59:44;;;;;;;0.93;0.93;;;17.60;92.90;;;;;;922136;151;27307;-74
2023/03/24 10:02:13;;;;;;;1.00;1.00;;;17.40;92.30;;;;;;926492;151;27692;-74
2023/03/24 10:04:40;;;;;;;0.90;0.90;;;17.20;92.10;;;;;;925920;151;27384;-74
2023/03/24 10:07:09;;;;;;;6.92;1.35;;;17.10;92.30;;;;;;927524;151;27416;-75
2023/03/24 10:09:36;;;;;;;1.65;0.90;;;16.80;92.30;;;;;;925497;151;27425;-75
2023/03/24 10:12:02;;;;;;;1.07;1.00;;;16.70;92.50;;;;;;927210;151;27364;-75
2023/03/24 10:14:32;;;;;;;2.02;0.98;;;16.50;92.80;;;;;;926819;151;27832;-75
2023/03/24 10:16:58;;;;;;;0.62;0.62;;;16.30;93.30;;;;;;925887;151;27386;-75
2023/03/24 10:19:39;;;;;;;0.85;0.70;;;16.00;93.70;;;;;;926225;151;27706;-75
2023/03/24 10:22:21;;;;;;;1.72;1.02;;;15.90;94.60;;;;;;927782;151;27414;-76
2023/03/24 10:24:56;;;;;;;1.98;1.20;;;15.70;95.30;;;;;;913474;151;27438;-76
2023/03/24 10:27:26;;;;;;;2.40;1.62;;;15.60;96.10;;;;;;926604;151;27436;-77
2023/03/24 10:29:52;;;;;;;1.32;1.20;;;15.50;97.40;;;;;;925462;151;27320;-76
2023/03/24 10:32:20;;;;;;;1.40;1.20;;;15.40;98.20;;;;;;924885;151;27303;-76
2023/03/24 10:34:45;;;;;;;0.93;0.93;;;15.40;98.90;;;;;;924330;151;27410;-76
2023/03/24 10:37:12;;;;;;;2.42;1.27;;;15.40;99.30;;;;;;923080;151;27389;-76
2023/03/24 10:39:39;;;;;;;1.65;0.95;;;15.30;99.20;;;;;;926656;151;27296;-76
2023/03/24 10:42:05;;;;;;;0.98;0.98;;;15.30;99.30;;;;;;925607;151;27366;-76
2023/03/24 10:44:32;;;;;;;0.78;0.78;;;15.30;99.30;;;;;;926331;151;27358;-76
2023/03/24 10:46:58;;;;;;;0.80;0.80;;;15.30;99.30;;;;;;926376;151;27601;-76
2023/03/24 10:49:25;;;;;;;0.68;0.68;;;15.30;99.50;;;;;;926167;151;27453;-75
2023/03/24 10:51:52;;;;;;;0.88;0.85;;;15.30;99.90;;;;;;924022;151;27379;-75
2023/03/24 10:54:18;;;;;;;1.20;1.10;;;15.30;99.90;;;;;;924302;151;27366;-76
2023/03/24 10:56:45;;;;;;;1.75;0.98;;;15.30;99.90;;;;;;923966;151;27373;-75
2023/03/24 10:59:27;;;;;;;0.85;0.70;;;15.40;99.90;;;;;;909543;153;27518;-76
2023/03/24 11:02:08;;;;;;;0.60;0.60;;;15.40;99.90;;;;;;911018;153;27499;-76
2023/03/24 11:04:38;;;;;;;0.82;0.82;;;15.50;99.90;;;;;;926252;151;27499;-75
2023/03/24 11:07:05;;;;;;;1.27;0.70;;;15.60;99.90;;;;;;927525;151;27522;-75
2023/03/24 11:09:44;;;;;;;1.00;0.80;;;15.70;99.90;;;;;;925372;151;27367;-75
2023/03/24 11:12:22;;;;;;;0.90;0.90;;;15.80;99.90;;;;;;909004;153;27441;-75
2023/03/24 11:14:49;;;;;;;0.50;0.50;;;16.00;99.90;;;;;;910705;153;27509;-75
2023/03/24 11:17:15;;;;;;;0.50;0.50;;;16.20;99.90;;;;;;909842;153;27426;-75
2023/03/24 11:19:51;;;;;;;2.42;1.00;;;16.30;99.90;;;;;;925998;151;27311;-75
2023/03/24 11:22:17;;;;;;;1.92;1.32;;;16.50;99.90;;;;;;909130;153;27346;-75
2023/03/24 11:24:44;;;;;;;0.50;0.50;;;16.60;99.90;;;;;;918379;153;27486;-75
2023/03/24 11:27:11;;;;;;;1.15;1.10;;;16.70;99.90;;;;;;907680;153;27479;-75
2023/03/24 11:29:37;;;;;;;1.55;1.17;;;16.80;99.90;;;;;;911328;154;27365;-80
2023/03/24 11:32:05;;;;;;;0.68;0.68;;;16.80;99.90;;;;;;901444;155;27388;-80
2023/03/24 11:34:41;;;;;;;0.68;0.68;;;16.90;99.90;;;;;;916484;152;27381;-80
2023/03/24 11:37:11;;;;;;;1.60;1.00;;;17.00;99.90;;;;;;920652;151;27391;-80
2023/03/24 11:39:38;;;;;;;1.02;0.80;;;17.00;99.90;;;;;;924866;151;27355;-80
2023/03/24 11:42:14;;;;;;;0.55;0.55;;;17.00;99.90;;;;;;905347;154;27382;-81
2023/03/24 11:44:52;;;;;;;1.10;0.60;;;17.10;99.80;;;;;;903156;153;27507;-80
2023/03/24 11:47:30;;;;;;;0.88;0.70;;;17.10;99.50;;;;;;905060;154;27369;-80
2023/03/24 11:50:08;;;;;;;0.90;0.60;;;17.10;99.90;;;;;;905325;154;27399;-80
2023/03/24 11:52:54;;;;;;;0.40;0.40;;;17.20;99.90;;;;;;902881;153;27518;-80
2023/03/24 11:55:23;;;;;;;0.65;0.65;;;17.20;99.90;;;;;;914311;152;27391;-80
2023/03/24 11:58:10;;;;;;;0.50;0.50;;;17.30;99.90;;;;;;902711;155;27397;-80
2023/03/24 12:00:37;;;;;;;1.92;1.50;;;17.50;99.90;;;;;;918092;151;27376;-80
2023/03/24 12:03:25;;;;;;;3.40;1.25;;;17.60;99.90;;;;;;917892;152;27855;-80
2023/03/24 12:05:52;;;;;;;1.85;0.70;;;17.70;99.90;;;;;;903924;154;27414;-80
2023/03/24 12:08:37;;;;;;;2.52;1.90;;;17.80;99.40;;;;;;903210;155;27460;-80
2023/03/24 12:11:06;;;;;;;1.57;1.47;;;17.90;98.90;;;;;;911586;154;27400;-80
2023/03/24 12:13:32;;;;;;;3.83;2.90;;;18.00;98.30;;;;;;903557;154;27351;-81
2023/03/24 12:16:20;;;;;;;3.52;3.22;;;18.10;98.00;;;;;;903682;154;27412;-81
2023/03/24 12:18:59;;;;;;;1.87;1.40;;;18.20;97.50;;;;;;902778;154;27396;-80
2023/03/24 12:21:34;;;;;;;0.68;0.55;;;18.20;96.90;;;;;;915858;151;27392;-81
2023/03/24 12:24:12;;;;;;;1.12;0.90;;;18.30;96.20;;;;;;914967;151;27499;-81
2023/03/24 12:26:39;;;;;;;1.75;0.90;;;18.30;95.70;;;;;;925913;151;27331;-81
2023/03/24 12:29:32;;;;;;;0.90;0.70;;;18.30;95.40;;;;;;940662;148;27420;-80
2023/03/24 12:32:15;;;;;;;1.12;0.80;;;18.40;95.30;;;;;;939725;148;27356;-80
2023/03/24 12:35:05;;;;;;;1.42;0.75;;;18.40;95.10;;;;;;940015;148;27337;-80
2023/03/24 12:37:37;;;;;;;1.72;0.82;;;18.40;94.20;;;;;;942799;148;27346;-81
2023/03/24 12:40:10;;;;;;;0.80;0.80;;;18.40;93.60;;;;;;940712;148;27717;-81
2023/03/24 12:42:36;;;;;;;1.52;1.42;;;18.40;93.30;;;;;;942155;148;27469;-81
2023/03/24 12:45:03;;;;;;;1.92;0.95;;;18.40;92.90;;;;;;941065;148;27401;-81
2023/03/24 12:47:32;;;;;;;0.93;0.75;;;18.40;92.50;;;;;;941158;148;27370;-80
2023/03/24 12:50:14;;;;;;;1.67;0.88;;;18.50;92.10;;;;;;941199;148;28117;-80
2023/03/24 12:52:52;;;;;;;1.70;0.85;;;18.50;92.00;;;;;;944538;148;27509;-80
2023/03/24 12:55:19;;;;;;;1.10;0.80;;;18.50;92.00;;;;;;941411;148;27333;-80
2023/03/24 12:57:47;;;;;;;3.33;1.10;;;18.60;92.50;;;;;;942019;148;27338;-80